Time;durP1;ratioP1;P1;durP2;ratioP2;P2;SDS_P1;SDS_P2;PMS_P1;PMS_P2;Temp;Humidity;BMP_temperature;BMP_pressure;BME280_temperature;BME280_humidity;BME280_pressure;Samples;Min_cycle;Max_cycle;Signal;HPM_P1;HPM_P2
2023/07/03 00:01:23;;;;;;;12.40;6.83;;;;;;;;;;5095349;28;20489;-63
2023/07/03 00:03:52;;;;;;;13.70;5.57;;;;;;;;;;5095035;28;20455;-63
2023/07/03 00:06:19;;;;;;;20.20;9.60;;;;;;;;;;5095578;28;20512;-63
2023/07/03 00:08:47;;;;;;;13.60;6.23;;;;;;;;;;5094017;28;20483;-64
2023/07/03 00:11:14;;;;;;;16.27;6.80;;;;;;;;;;5074995;28;20444;-64
2023/07/03 00:13:41;;;;;;;9.07;5.73;;;;;;;;;;5075111;28;20457;-64
2023/07/03 00:16:08;;;;;;;11.07;5.90;;;;;;;;;;5074714;28;20936;-63
2023/07/03 00:18:35;;;;;;;14.90;6.57;;;;;;;;;;5074898;28;20447;-63
2023/07/03 00:21:04;;;;;;;19.03;6.67;;;;;;;;;;5074600;28;20587;-63
2023/07/03 00:23:32;;;;;;;15.80;6.80;;;;;;;;;;5074472;28;21007;-63
2023/07/03 00:25:59;;;;;;;16.00;6.70;;;;;;;;;;5074620;28;20442;-63
2023/07/03 00:28:26;;;;;;;16.70;6.57;;;;;;;;;;5075174;28;20584;-63
2023/07/03 00:30:53;;;;;;;16.90;6.40;;;;;;;;;;5074564;28;20817;-64
2023/07/03 00:33:21;;;;;;;18.67;5.63;;;;;;;;;;5074953;28;20465;-63
2023/07/03 00:35:48;;;;;;;16.13;7.43;;;;;;;;;;5074453;28;20444;-63
2023/07/03 00:38:16;;;;;;;17.63;6.20;;;;;;;;;;5074445;28;20462;-63
2023/07/03 00:40:43;;;;;;;12.67;6.30;;;;;;;;;;5074331;28;20974;-63
2023/07/03 00:43:11;;;;;;;14.27;5.53;;;;;;;;;;5074032;28;20446;-64
2023/07/03 00:45:38;;;;;;;13.53;6.23;;;;;;;;;;5073960;28;20438;-65
2023/07/03 00:48:05;;;;;;;14.60;7.00;;;;;;;;;;5074323;28;20503;-63
2023/07/03 00:50:34;;;;;;;13.20;5.63;;;;;;;;;;5074251;28;20911;-64
2023/07/03 00:53:04;;;;;;;9.47;5.60;;;;;;;;;;5073809;28;20539;-63
2023/07/03 00:55:33;;;;;;;12.30;6.23;;;;;;;;;;5074815;28;20813;-63
2023/07/03 00:58:00;;;;;;;15.97;6.07;;;;;;;;;;5074089;28;20449;-63
2023/07/03 01:00:34;;;;;;;16.00;6.33;;;;;;;;;;5073718;28;20974;-63
2023/07/03 01:03:08;;;;;;;13.27;6.40;;;;;;;;;;5073961;28;20466;-64
2023/07/03 01:05:40;;;;;;;19.73;7.37;;;;;;;;;;5074110;28;20519;-63
2023/07/03 01:08:07;;;;;;;13.00;6.37;;;;;;;;;;5073883;28;20474;-63
2023/07/03 01:10:36;;;;;;;18.00;7.13;;;;;;;;;;5073566;28;20456;-63
2023/07/03 01:13:05;;;;;;;11.27;6.50;;;;;;;;;;5073389;28;20951;-64
2023/07/03 01:15:33;;;;;;;15.23;6.93;;;;;;;;;;5074176;28;20531;-63
2023/07/03 01:18:03;;;;;;;9.80;6.50;;;;;;;;;;5073369;28;20532;-64
2023/07/03 01:20:32;;;;;;;17.63;6.10;;;;;;;;;;5073917;28;20483;-64
2023/07/03 01:23:02;;;;;;;15.93;7.00;;;;;;;;;;5073591;28;20441;-64
2023/07/03 01:25:32;;;;;;;13.33;6.83;;;;;;;;;;5073424;28;20912;-64
2023/07/03 01:28:00;;;;;;;10.13;6.27;;;;;;;;;;5073269;28;21025;-63
2023/07/03 01:30:29;;;;;;;14.00;7.27;;;;;;;;;;5074171;28;20806;-64
2023/07/03 01:32:57;;;;;;;14.50;5.60;;;;;;;;;;5073535;28;20466;-62
2023/07/03 01:35:25;;;;;;;12.47;5.93;;;;;;;;;;5073191;28;20476;-63
2023/07/03 01:37:53;;;;;;;16.57;6.07;;;;;;;;;;5073078;28;20530;-63
2023/07/03 01:40:23;;;;;;;16.23;5.77;;;;;;;;;;5073505;28;20848;-63
2023/07/03 01:42:52;;;;;;;9.47;4.67;;;;;;;;;;5073448;28;20470;-64
2023/07/03 01:45:19;;;;;;;13.63;5.53;;;;;;;;;;5073386;28;20923;-63
2023/07/03 01:47:47;;;;;;;14.23;5.70;;;;;;;;;;5073292;28;20849;-65
2023/07/03 01:50:15;;;;;;;9.00;5.37;;;;;;;;;;5073517;28;20481;-63
2023/07/03 01:52:45;;;;;;;15.20;6.33;;;;;;;;;;5073416;28;20522;-64
2023/07/03 01:55:14;;;;;;;8.30;5.43;;;;;;;;;;5073017;28;20441;-63
2023/07/03 01:57:44;;;;;;;15.83;5.70;;;;;;;;;;5073227;28;20447;-64
2023/07/03 02:00:16;;;;;;;9.43;5.43;;;;;;;;;;5072936;28;20448;-63
2023/07/03 02:02:46;;;;;;;14.10;4.90;;;;;;;;;;5073628;28;20435;-63
2023/07/03 02:05:16;;;;;;;14.63;5.50;;;;;;;;;;5077295;28;20909;-63
2023/07/03 02:07:45;;;;;;;12.90;5.23;;;;;;;;;;5077279;28;20479;-63
2023/07/03 02:10:12;;;;;;;14.03;4.90;;;;;;;;;;5077353;28;20804;-64
2023/07/03 02:12:41;;;;;;;10.23;5.20;;;;;;;;;;5077370;28;20449;-64
2023/07/03 02:15:09;;;;;;;14.37;5.50;;;;;;;;;;5077260;28;20448;-63
2023/07/03 02:17:38;;;;;;;10.40;5.13;;;;;;;;;;5076889;28;20637;-64
2023/07/03 02:20:08;;;;;;;13.47;5.00;;;;;;;;;;5077006;28;20491;-63
2023/07/03 02:22:35;;;;;;;11.93;5.47;;;;;;;;;;5077098;28;20430;-63
2023/07/03 02:25:03;;;;;;;14.20;5.50;;;;;;;;;;5076712;28;20441;-64
2023/07/03 02:27:31;;;;;;;13.67;6.80;;;;;;;;;;5076866;28;20526;-63
2023/07/03 02:29:58;;;;;;;13.93;5.43;;;;;;;;;;5076938;28;20454;-63
2023/07/03 02:32:32;;;;;;;10.43;4.70;;;;;;;;;;5076413;28;20445;-64
2023/07/03 02:35:01;;;;;;;9.03;5.00;;;;;;;;;;5076557;28;20428;-64
2023/07/03 02:37:28;;;;;;;11.27;5.30;;;;;;;;;;5077040;28;20475;-64
2023/07/03 02:39:55;;;;;;;12.27;4.73;;;;;;;;;;5076513;28;20457;-63
2023/07/03 02:42:23;;;;;;;11.33;4.67;;;;;;;;;;5076599;28;20447;-64
2023/07/03 02:44:50;;;;;;;21.17;6.37;;;;;;;;;;5076640;28;20445;-64
2023/07/03 02:47:17;;;;;;;14.07;4.70;;;;;;;;;;5076878;28;20520;-64
2023/07/03 02:49:44;;;;;;;10.07;4.90;;;;;;;;;;5076757;28;20491;-63
2023/07/03 02:52:13;;;;;;;13.70;4.60;;;;;;;;;;5076243;28;20446;-63
2023/07/03 02:54:40;;;;;;;10.60;4.80;;;;;;;;;;5076345;28;20795;-63
2023/07/03 02:57:07;;;;;;;20.10;5.20;;;;;;;;;;5076517;28;20528;-63
2023/07/03 02:59:35;;;;;;;10.03;4.80;;;;;;;;;;5076315;28;20882;-64
2023/07/03 03:02:02;;;;;;;15.13;4.67;;;;;;;;;;5076378;28;20439;-63
2023/07/03 03:04:29;;;;;;;14.03;4.50;;;;;;;;;;5076313;28;20440;-63
2023/07/03 03:06:56;;;;;;;11.07;4.20;;;;;;;;;;5076691;28;20448;-63
2023/07/03 03:09:25;;;;;;;12.30;4.83;;;;;;;;;;5076226;28;20479;-63
2023/07/03 03:11:52;;;;;;;12.23;5.70;;;;;;;;;;5076117;28;20443;-64
2023/07/03 03:14:19;;;;;;;9.50;4.90;;;;;;;;;;5076091;28;20450;-63
2023/07/03 03:16:46;;;;;;;15.40;4.67;;;;;;;;;;5075806;28;20453;-63
2023/07/03 03:19:14;;;;;;;12.27;4.53;;;;;;;;;;5076176;28;20819;-64
2023/07/03 03:21:41;;;;;;;9.30;4.67;;;;;;;;;;5076113;28;20480;-63
2023/07/03 03:24:08;;;;;;;12.97;5.27;;;;;;;;;;5075910;28;20446;-64
2023/07/03 03:26:37;;;;;;;13.00;4.90;;;;;;;;;;5075905;28;20447;-63
2023/07/03 03:29:04;;;;;;;6.60;4.00;;;;;;;;;;5075597;28;20528;-64
2023/07/03 03:31:31;;;;;;;10.40;5.03;;;;;;;;;;5075478;28;20448;-63
2023/07/03 03:33:58;;;;;;;18.03;6.20;;;;;;;;;;5075404;28;20462;-64
2023/07/03 03:36:25;;;;;;;13.53;4.60;;;;;;;;;;5075358;28;20451;-64
2023/07/03 03:38:53;;;;;;;13.80;4.73;;;;;;;;;;5075891;28;20456;-64
2023/07/03 03:41:20;;;;;;;13.50;4.50;;;;;;;;;;5076099;28;20453;-64
2023/07/03 03:43:48;;;;;;;15.03;5.00;;;;;;;;;;5075444;28;20448;-64
2023/07/03 03:46:16;;;;;;;15.30;5.43;;;;;;;;;;5075527;28;20443;-63
2023/07/03 03:48:43;;;;;;;11.63;6.00;;;;;;;;;;5074940;28;20479;-63
2023/07/03 03:51:10;;;;;;;13.47;5.47;;;;;;;;;;5075023;28;20455;-63
2023/07/03 03:53:37;;;;;;;21.00;5.30;;;;;;;;;;5074974;28;20440;-64
2023/07/03 03:56:04;;;;;;;14.33;4.87;;;;;;;;;;5074958;28;20441;-63
2023/07/03 03:58:32;;;;;;;13.77;5.37;;;;;;;;;;5074765;28;20450;-66
2023/07/03 04:01:02;;;;;;;17.57;7.03;;;;;;;;;;5095036;28;20448;-64
2023/07/03 04:03:29;;;;;;;11.00;4.90;;;;;;;;;;5094859;28;20942;-64
2023/07/03 04:05:56;;;;;;;11.57;4.70;;;;;;;;;;5095188;28;20438;-63
2023/07/03 04:08:23;;;;;;;18.47;6.27;;;;;;;;;;5094673;28;20487;-63
2023/07/03 04:10:50;;;;;;;15.20;4.90;;;;;;;;;;5095169;28;20445;-64
2023/07/03 04:13:17;;;;;;;11.63;5.13;;;;;;;;;;5095076;28;20446;-63
2023/07/03 04:15:51;;;;;;;13.83;5.10;;;;;;;;;;5094988;28;20440;-63
2023/07/03 04:18:20;;;;;;;25.63;6.37;;;;;;;;;;5094727;28;20434;-63
2023/07/03 04:20:47;;;;;;;11.23;5.17;;;;;;;;;;5094675;28;20473;-63
2023/07/03 04:23:14;;;;;;;13.27;5.10;;;;;;;;;;5094899;28;20457;-68
2023/07/03 04:25:42;;;;;;;11.37;4.83;;;;;;;;;;5093900;28;20449;-67
2023/07/03 04:28:10;;;;;;;16.83;5.13;;;;;;;;;;5094720;28;20483;-63
2023/07/03 04:30:37;;;;;;;11.87;5.27;;;;;;;;;;5094572;28;20530;-63
2023/07/03 04:33:04;;;;;;;12.53;4.93;;;;;;;;;;5094585;28;20806;-63
2023/07/03 04:35:33;;;;;;;13.57;4.63;;;;;;;;;;5094695;28;20442;-63
2023/07/03 04:38:01;;;;;;;10.23;4.60;;;;;;;;;;5094346;28;20453;-63
2023/07/03 04:40:28;;;;;;;14.63;5.87;;;;;;;;;;5094224;28;20450;-63
2023/07/03 04:42:55;;;;;;;18.40;6.10;;;;;;;;;;5094496;28;20447;-64
2023/07/03 04:45:24;;;;;;;19.97;5.60;;;;;;;;;;5094618;28;20437;-63
2023/07/03 04:47:51;;;;;;;17.43;5.67;;;;;;;;;;5094463;28;20532;-63
2023/07/03 04:50:24;;;;;;;16.70;5.37;;;;;;;;;;5094304;28;20520;-64
2023/07/03 04:52:54;;;;;;;12.00;4.87;;;;;;;;;;5094335;28;20433;-63
2023/07/03 04:55:21;;;;;;;11.67;4.53;;;;;;;;;;5094536;28;20474;-63
2023/07/03 04:57:48;;;;;;;15.30;5.60;;;;;;;;;;5094639;28;20467;-64
2023/07/03 05:00:17;;;;;;;17.23;5.50;;;;;;;;;;5093664;28;20443;-64
2023/07/03 05:02:44;;;;;;;23.20;6.50;;;;;;;;;;5094051;28;20502;-65
2023/07/03 05:05:11;;;;;;;12.40;4.80;;;;;;;;;;5094145;28;20442;-64
2023/07/03 05:07:39;;;;;;;17.03;5.53;;;;;;;;;;5094013;28;20453;-63
2023/07/03 05:10:09;;;;;;;19.97;5.30;;;;;;;;;;5093916;28;20525;-63
2023/07/03 05:12:36;;;;;;;21.00;6.77;;;;;;;;;;5093610;28;20949;-64
2023/07/03 05:15:03;;;;;;;13.33;5.00;;;;;;;;;;5093529;28;20822;-64
2023/07/03 05:17:33;;;;;;;12.83;5.07;;;;;;;;;;5094028;28;20475;-63
2023/07/03 05:20:00;;;;;;;12.70;5.83;;;;;;;;;;5093396;28;20567;-64
2023/07/03 05:22:27;;;;;;;17.40;5.63;;;;;;;;;;5093792;28;20437;-64
2023/07/03 05:24:55;;;;;;;16.60;5.53;;;;;;;;;;5093337;28;20454;-64
2023/07/03 05:27:23;;;;;;;26.40;6.67;;;;;;;;;;5093984;28;20454;-63
2023/07/03 05:29:51;;;;;;;18.07;5.90;;;;;;;;;;5093354;28;21002;-64
2023/07/03 05:32:18;;;;;;;16.23;4.93;;;;;;;;;;5093767;28;20468;-63
2023/07/03 05:34:45;;;;;;;18.30;5.70;;;;;;;;;;5093761;28;20792;-63
2023/07/03 05:37:12;;;;;;;24.87;5.80;;;;;;;;;;5092983;28;20486;-63
2023/07/03 05:39:39;;;;;;;19.43;5.70;;;;;;;;;;5093164;28;20456;-64
2023/07/03 05:42:07;;;;;;;18.20;8.00;;;;;;;;;;5093911;28;20522;-64
2023/07/03 05:44:36;;;;;;;17.10;5.10;;;;;;;;;;5093365;28;20933;-64
2023/07/03 05:47:04;;;;;;;21.30;6.17;;;;;;;;;;5093627;28;20442;-63
2023/07/03 05:49:31;;;;;;;11.37;5.27;;;;;;;;;;5093491;28;20476;-64
2023/07/03 05:51:58;;;;;;;18.37;5.83;;;;;;;;;;5093203;28;20442;-64
2023/07/03 05:54:25;;;;;;;20.53;6.27;;;;;;;;;;5093278;28;20447;-64
2023/07/03 05:56:58;;;;;;;18.20;6.60;;;;;;;;;;5093121;28;20446;-64
2023/07/03 05:59:25;;;;;;;18.67;6.10;;;;;;;;;;5093599;28;20494;-64
2023/07/03 06:01:56;;;;;;;17.80;5.23;;;;;;;;;;5093085;28;20443;-63
2023/07/03 06:04:23;;;;;;;22.23;7.20;;;;;;;;;;5093483;28;20436;-64
2023/07/03 06:06:51;;;;;;;19.07;6.03;;;;;;;;;;5093314;28;20467;-63
2023/07/03 06:09:18;;;;;;;19.17;6.30;;;;;;;;;;5093276;28;20482;-64
2023/07/03 06:11:45;;;;;;;15.00;5.77;;;;;;;;;;5092848;28;20456;-64
2023/07/03 06:14:15;;;;;;;15.23;6.33;;;;;;;;;;5093405;28;20465;-64
2023/07/03 06:16:42;;;;;;;17.00;6.10;;;;;;;;;;5093707;28;20429;-64
2023/07/03 06:19:11;;;;;;;23.90;7.67;;;;;;;;;;5092904;28;20483;-64
2023/07/03 06:21:38;;;;;;;18.23;5.13;;;;;;;;;;5092729;28;20472;-64
2023/07/03 06:24:06;;;;;;;17.03;5.87;;;;;;;;;;5093673;28;20940;-64
2023/07/03 06:26:33;;;;;;;20.57;5.90;;;;;;;;;;5093046;28;20450;-63
2023/07/03 06:29:01;;;;;;;15.50;5.80;;;;;;;;;;5093346;28;20448;-63
2023/07/03 06:31:28;;;;;;;16.73;6.83;;;;;;;;;;5093208;28;20505;-63
2023/07/03 06:33:55;;;;;;;16.03;5.93;;;;;;;;;;5093193;28;20446;-64
2023/07/03 06:36:25;;;;;;;22.33;6.47;;;;;;;;;;5092763;28;20956;-64
2023/07/03 06:38:53;;;;;;;26.20;6.70;;;;;;;;;;5093147;28;20451;-63
2023/07/03 06:41:20;;;;;;;15.63;6.03;;;;;;;;;;5092698;28;20443;-63
2023/07/03 06:43:47;;;;;;;22.50;6.40;;;;;;;;;;5093060;28;20528;-64
2023/07/03 06:46:15;;;;;;;28.10;6.27;;;;;;;;;;5093132;28;20447;-63
2023/07/03 06:48:42;;;;;;;17.60;5.13;;;;;;;;;;5093204;28;20449;-63
2023/07/03 06:51:10;;;;;;;18.00;5.10;;;;;;;;;;5096850;28;20571;-63
2023/07/03 06:53:39;;;;;;;19.20;6.00;;;;;;;;;;5097192;28;20445;-63
2023/07/03 06:56:07;;;;;;;19.50;7.50;;;;;;;;;;5096402;28;20451;-63
2023/07/03 06:58:35;;;;;;;20.93;6.17;;;;;;;;;;5096687;28;20447;-63
2023/07/03 07:01:06;;;;;;;17.07;5.53;;;;;;;;;;5096231;28;20453;-64
2023/07/03 07:03:34;;;;;;;18.67;5.87;;;;;;;;;;5096814;28;20431;-64
2023/07/03 07:06:08;;;;;;;20.67;6.50;;;;;;;;;;5096413;28;20540;-64
2023/07/03 07:08:35;;;;;;;21.63;6.80;;;;;;;;;;5096256;28;20901;-63
2023/07/03 07:11:04;;;;;;;21.33;6.97;;;;;;;;;;5096293;28;20577;-64
2023/07/03 07:13:31;;;;;;;20.57;6.03;;;;;;;;;;5096391;28;20917;-63
2023/07/03 07:15:58;;;;;;;18.63;6.87;;;;;;;;;;5096251;28;20444;-64
2023/07/03 07:18:25;;;;;;;20.43;6.10;;;;;;;;;;5096311;28;20448;-63
2023/07/03 07:20:54;;;;;;;17.67;6.23;;;;;;;;;;5096185;28;20464;-64
2023/07/03 07:23:21;;;;;;;11.50;5.03;;;;;;;;;;5096851;28;20452;-64
2023/07/03 07:25:53;;;;;;;17.07;6.43;;;;;;;;;;5096397;28;20926;-63
2023/07/03 07:28:22;;;;;;;23.40;5.27;;;;;;;;;;5096144;28;20766;-63
2023/07/03 07:30:50;;;;;;;20.13;5.33;;;;;;;;;;5096016;28;20910;-63
2023/07/03 07:33:17;;;;;;;18.93;5.17;;;;;;;;;;5095954;28;20446;-63
2023/07/03 07:35:45;;;;;;;15.90;6.23;;;;;;;;;;5096100;28;20437;-63
2023/07/03 07:38:13;;;;;;;15.63;5.30;;;;;;;;;;5095572;28;20931;-63
2023/07/03 07:40:40;;;;;;;19.13;5.37;;;;;;;;;;5095955;27;20517;-64
2023/07/03 07:43:07;;;;;;;26.17;6.73;;;;;;;;;;5095570;28;20866;-64
2023/07/03 07:45:37;;;;;;;14.27;5.37;;;;;;;;;;5095521;28;20449;-64
2023/07/03 07:48:05;;;;;;;14.90;6.10;;;;;;;;;;5095626;28;20437;-63
2023/07/03 07:50:35;;;;;;;17.73;6.63;;;;;;;;;;5095129;28;20491;-64
2023/07/03 07:53:02;;;;;;;17.90;6.57;;;;;;;;;;5095565;28;20530;-63
2023/07/03 07:55:29;;;;;;;22.30;6.67;;;;;;;;;;5095618;28;20692;-63
2023/07/03 07:57:57;;;;;;;21.40;5.63;;;;;;;;;;5095456;28;20448;-63
2023/07/03 08:00:24;;;;;;;13.10;6.10;;;;;;;;;;5094525;28;20446;-64
2023/07/03 08:02:53;;;;;;;13.33;5.77;;;;;;;;;;5094866;28;20485;-63
2023/07/03 08:05:20;;;;;;;17.30;6.67;;;;;;;;;;5095069;28;20449;-64
2023/07/03 08:07:48;;;;;;;17.87;6.27;;;;;;;;;;5095632;28;20446;-63
2023/07/03 08:10:15;;;;;;;15.87;6.63;;;;;;;;;;5094900;28;20515;-64
2023/07/03 08:12:43;;;;;;;17.37;7.87;;;;;;;;;;5095431;28;20840;-63
2023/07/03 08:15:10;;;;;;;22.97;7.87;;;;;;;;;;5094938;28;20443;-63
2023/07/03 08:17:38;;;;;;;19.73;6.83;;;;;;;;;;5095065;28;20531;-64
2023/07/03 08:20:11;;;;;;;16.30;6.73;;;;;;;;;;5094915;28;20522;-65
2023/07/03 08:22:38;;;;;;;20.77;6.87;;;;;;;;;;5095250;28;20519;-63
2023/07/03 08:25:05;;;;;;;16.50;6.50;;;;;;;;;;5095487;28;20445;-64
2023/07/03 08:27:33;;;;;;;15.50;6.07;;;;;;;;;;5095304;28;20441;-64
2023/07/03 08:30:00;;;;;;;21.50;7.37;;;;;;;;;;5094869;28;20998;-63
2023/07/03 08:32:27;;;;;;;16.20;6.37;;;;;;;;;;5094497;28;20449;-63
2023/07/03 08:34:54;;;;;;;18.43;7.30;;;;;;;;;;5095129;28;20445;-64
2023/07/03 08:37:23;;;;;;;16.03;6.23;;;;;;;;;;5095031;28;20441;-63
2023/07/03 08:39:50;;;;;;;15.93;4.77;;;;;;;;;;5094471;28;20951;-62
2023/07/03 08:42:20;;;;;;;19.63;6.00;;;;;;;;;;5094284;28;20932;-63
2023/07/03 08:44:48;;;;;;;14.40;4.70;;;;;;;;;;5094764;28;20467;-63
2023/07/03 08:47:17;;;;;;;16.53;4.93;;;;;;;;;;5094192;28;20960;-64
2023/07/03 08:49:46;;;;;;;12.80;4.30;;;;;;;;;;5094235;28;20913;-63
2023/07/03 08:52:14;;;;;;;6.60;4.00;;;;;;;;;;5094386;28;20473;-63
2023/07/03 08:54:43;;;;;;;15.73;4.70;;;;;;;;;;5095263;28;20447;-63
2023/07/03 08:57:12;;;;;;;15.73;5.23;;;;;;;;;;5094824;28;20495;-64
2023/07/03 08:59:39;;;;;;;13.13;3.63;;;;;;;;;;5094397;28;20439;-64
2023/07/03 09:02:13;;;;;;;16.20;5.43;;;;;;;;;;5094031;28;20541;-63
2023/07/03 09:04:47;;;;;;;13.13;4.13;;;;;;;;;;5094964;28;20525;-63
2023/07/03 09:07:18;;;;;;;11.20;4.40;;;;;;;;;;5094372;28;20501;-64
2023/07/03 09:09:50;;;;;;;10.03;3.90;;;;;;;;;;5095071;28;20454;-63
2023/07/03 09:12:21;;;;;;;11.80;3.83;;;;;;;;;;5093801;28;20419;-63
2023/07/03 09:14:51;;;;;;;11.33;4.17;;;;;;;;;;5094353;28;20435;-63
2023/07/03 09:17:19;;;;;;;10.70;4.40;;;;;;;;;;5094190;28;20481;-63
2023/07/03 09:19:48;;;;;;;13.77;4.67;;;;;;;;;;5093673;28;20447;-63
2023/07/03 09:22:18;;;;;;;10.70;3.83;;;;;;;;;;5094532;28;20433;-64
2023/07/03 09:24:47;;;;;;;8.60;3.53;;;;;;;;;;5093735;28;20907;-63
2023/07/03 09:27:16;;;;;;;10.57;4.00;;;;;;;;;;5093891;28;20452;-63
2023/07/03 09:29:44;;;;;;;10.33;3.97;;;;;;;;;;5093810;28;20438;-63
2023/07/03 09:32:13;;;;;;;12.87;5.13;;;;;;;;;;5094103;28;20864;-64
2023/07/03 09:34:58;;;;;;;7.10;3.67;;;;;;;;;;5093734;28;20446;-63
2023/07/03 09:37:25;;;;;;;12.37;3.90;;;;;;;;;;5093523;28;20462;-63
2023/07/03 09:39:54;;;;;;;11.67;4.00;;;;;;;;;;5093731;28;20468;-63
2023/07/03 09:42:22;;;;;;;10.00;3.33;;;;;;;;;;5094305;28;20917;-63
2023/07/03 09:44:50;;;;;;;12.30;4.53;;;;;;;;;;5093340;28;20449;-64
2023/07/03 09:47:18;;;;;;;12.80;4.03;;;;;;;;;;5093668;28;20446;-63
2023/07/03 09:49:45;;;;;;;9.43;3.70;;;;;;;;;;5093099;28;20531;-63
2023/07/03 09:52:13;;;;;;;15.57;3.93;;;;;;;;;;5093523;28;20610;-63
2023/07/03 09:54:43;;;;;;;13.83;3.60;;;;;;;;;;5093688;28;20481;-63
2023/07/03 09:57:21;;;;;;;11.27;3.60;;;;;;;;;;5093752;28;20427;-63
2023/07/03 09:59:48;;;;;;;13.37;4.13;;;;;;;;;;5093700;28;20483;-63
2023/07/03 10:02:17;;;;;;;14.13;4.20;;;;;;;;;;5093531;28;20449;-63
2023/07/03 10:04:45;;;;;;;7.20;3.13;;;;;;;;;;5093038;28;20453;-63
2023/07/03 10:07:15;;;;;;;7.83;3.70;;;;;;;;;;5093146;28;20480;-63
2023/07/03 10:09:43;;;;;;;12.90;3.90;;;;;;;;;;5093634;28;20428;-64
2023/07/03 10:12:13;;;;;;;7.77;4.30;;;;;;;;;;5093297;28;20489;-63
2023/07/03 10:14:44;;;;;;;8.20;4.20;;;;;;;;;;5093086;28;20528;-63
2023/07/03 10:17:13;;;;;;;8.87;3.73;;;;;;;;;;5093408;28;20496;-63
2023/07/03 10:19:41;;;;;;;6.60;3.73;;;;;;;;;;5093135;28;20451;-64
2023/07/03 10:22:09;;;;;;;8.90;4.30;;;;;;;;;;5093575;28;20428;-63
2023/07/03 10:24:36;;;;;;;10.13;4.97;;;;;;;;;;5094982;28;20848;-63
2023/07/03 10:27:05;;;;;;;14.93;4.27;;;;;;;;;;5096999;28;20525;-63
2023/07/03 10:29:37;;;;;;;11.13;4.30;;;;;;;;;;5097501;28;20443;-64
2023/07/03 10:32:08;;;;;;;8.90;3.40;;;;;;;;;;5097547;28;20470;-63
2023/07/03 10:34:38;;;;;;;7.13;2.97;;;;;;;;;;5097432;28;20512;-63
2023/07/03 10:37:07;;;;;;;9.20;3.20;;;;;;;;;;5097705;28;20455;-64
2023/07/03 10:39:40;;;;;;;11.83;4.17;;;;;;;;;;5096909;28;20442;-64
2023/07/03 10:42:11;;;;;;;9.23;3.87;;;;;;;;;;5097963;28;20469;-64
2023/07/03 10:44:40;;;;;;;10.03;3.30;;;;;;;;;;5096733;28;20417;-64
2023/07/03 10:47:17;;;;;;;13.00;4.10;;;;;;;;;;5096722;28;20441;-64
2023/07/03 10:49:45;;;;;;;9.80;4.13;;;;;;;;;;5096933;28;20447;-64
2023/07/03 10:52:15;;;;;;;12.63;4.60;;;;;;;;;;5096503;28;20482;-64
2023/07/03 10:54:46;;;;;;;8.30;3.97;;;;;;;;;;5096426;28;20451;-64
2023/07/03 10:57:16;;;;;;;11.70;4.27;;;;;;;;;;5096785;28;20435;-64
2023/07/03 10:59:46;;;;;;;11.90;4.60;;;;;;;;;;5096410;28;20423;-64
2023/07/03 11:02:19;;;;;;;14.83;4.60;;;;;;;;;;5097304;28;20537;-64
2023/07/03 11:04:51;;;;;;;15.07;4.13;;;;;;;;;;5096923;28;20464;-64
2023/07/03 11:07:21;;;;;;;8.50;3.30;;;;;;;;;;5096951;28;20463;-63
2023/07/03 11:09:51;;;;;;;10.47;3.77;;;;;;;;;;5096523;28;20439;-62
2023/07/03 11:12:23;;;;;;;9.63;4.40;;;;;;;;;;5096151;28;20489;-63
2023/07/03 11:14:56;;;;;;;12.10;4.90;;;;;;;;;;5096107;28;20485;-63
2023/07/03 11:17:30;;;;;;;13.67;5.40;;;;;;;;;;5096610;28;20427;-63
2023/07/03 11:20:04;;;;;;;13.33;4.57;;;;;;;;;;5095843;28;20486;-63
2023/07/03 11:22:34;;;;;;;11.47;5.10;;;;;;;;;;5096378;28;20799;-63
2023/07/03 11:25:06;;;;;;;13.03;5.00;;;;;;;;;;5095819;28;20487;-64
2023/07/03 11:27:37;;;;;;;18.60;5.50;;;;;;;;;;5096391;28;20431;-63
2023/07/03 11:30:04;;;;;;;12.83;4.37;;;;;;;;;;5096571;28;20435;-64
2023/07/03 11:32:34;;;;;;;13.20;4.93;;;;;;;;;;5095887;28;20490;-63
2023/07/03 11:35:01;;;;;;;9.60;4.37;;;;;;;;;;5095393;28;20507;-64
2023/07/03 11:37:33;;;;;;;10.83;4.57;;;;;;;;;;5095646;28;20438;-64
2023/07/03 11:40:20;;;;;;;14.20;5.30;;;;;;;;;;5096013;28;20470;-63
2023/07/03 11:42:48;;;;;;;14.07;5.13;;;;;;;;;;5095961;28;20466;-64
2023/07/03 11:45:26;;;;;;;16.70;4.80;;;;;;;;;;5095775;28;20466;-63
2023/07/03 11:47:55;;;;;;;9.90;4.50;;;;;;;;;;5096330;28;20436;-64
2023/07/03 11:50:28;;;;;;;11.20;4.60;;;;;;;;;;5089755;28;20440;-64
2023/07/03 11:52:55;;;;;;;15.53;7.00;;;;;;;;;;5084650;28;20449;-64
2023/07/03 11:55:34;;;;;;;7.00;4.23;;;;;;;;;;5095142;28;20852;-64
2023/07/03 11:58:02;;;;;;;10.10;4.50;;;;;;;;;;5095517;28;20447;-64
2023/07/03 12:00:30;;;;;;;10.53;4.70;;;;;;;;;;5095516;28;20442;-63
2023/07/03 12:02:59;;;;;;;16.10;6.00;;;;;;;;;;5095481;28;20443;-63
2023/07/03 12:05:46;;;;;;;13.00;5.67;;;;;;;;;;5095624;28;20465;-63
2023/07/03 12:08:13;;;;;;;8.60;4.20;;;;;;;;;;5094931;28;20443;-64
2023/07/03 12:10:46;;;;;;;9.87;4.93;;;;;;;;;;5095322;28;20486;-64
2023/07/03 12:13:32;;;;;;;13.10;5.03;;;;;;;;;;5095068;28;20441;-64
2023/07/03 12:16:02;;;;;;;12.13;4.17;;;;;;;;;;5094852;28;20449;-63
2023/07/03 12:18:31;;;;;;;10.53;4.07;;;;;;;;;;5095389;28;20478;-65
2023/07/03 12:20:59;;;;;;;7.60;4.00;;;;;;;;;;5094806;28;20493;-64
2023/07/03 12:23:33;;;;;;;10.97;4.37;;;;;;;;;;5094926;28;20920;-63
2023/07/03 12:26:03;;;;;;;11.10;4.03;;;;;;;;;;5094729;28;20872;-64
2023/07/03 12:28:31;;;;;;;8.93;4.10;;;;;;;;;;5094824;28;20439;-64
2023/07/03 12:31:10;;;;;;;10.93;3.90;;;;;;;;;;5094343;28;20935;-64
2023/07/03 12:33:48;;;;;;;8.30;3.80;;;;;;;;;;5094751;28;20427;-64
2023/07/03 12:36:20;;;;;;;10.70;4.00;;;;;;;;;;5094767;28;20522;-64
2023/07/03 12:38:48;;;;;;;11.03;4.13;;;;;;;;;;5094382;28;20428;-64
2023/07/03 12:41:15;;;;;;;8.00;3.87;;;;;;;;;;5094661;28;20538;-63
2023/07/03 12:43:44;;;;;;;15.90;5.20;;;;;;;;;;5094460;28;20434;-65
2023/07/03 12:46:11;;;;;;;12.97;4.33;;;;;;;;;;5094271;28;20475;-63
2023/07/03 12:48:41;;;;;;;10.50;4.40;;;;;;;;;;5094411;28;20439;-64
2023/07/03 12:51:09;;;;;;;8.87;4.13;;;;;;;;;;5094578;28;20475;-63
2023/07/03 12:53:37;;;;;;;11.87;4.33;;;;;;;;;;5094420;28;20534;-64
2023/07/03 12:56:06;;;;;;;16.60;4.80;;;;;;;;;;5093979;28;20484;-64
2023/07/03 12:58:34;;;;;;;9.63;4.93;;;;;;;;;;5094367;28;20442;-64
2023/07/03 13:01:02;;;;;;;11.33;4.77;;;;;;;;;;5094200;28;20447;-63
2023/07/03 13:03:29;;;;;;;15.17;4.30;;;;;;;;;;5093928;28;20928;-64
2023/07/03 13:05:57;;;;;;;6.30;3.87;;;;;;;;;;5094012;28;20490;-64
2023/07/03 13:08:26;;;;;;;16.70;4.47;;;;;;;;;;5093863;28;20955;-65
2023/07/03 13:11:00;;;;;;;15.33;5.17;;;;;;;;;;5093764;28;20443;-64
2023/07/03 13:13:27;;;;;;;9.67;5.07;;;;;;;;;;5093797;28;20444;-63
2023/07/03 13:15:54;;;;;;;9.80;4.00;;;;;;;;;;5093744;28;20447;-64
2023/07/03 13:18:22;;;;;;;13.90;4.90;;;;;;;;;;5093915;28;20525;-63
2023/07/03 13:20:58;;;;;;;13.53;4.67;;;;;;;;;;5093863;28;20480;-64
2023/07/03 13:23:29;;;;;;;11.20;4.17;;;;;;;;;;5093715;28;20500;-63
2023/07/03 13:25:59;;;;;;;12.17;4.27;;;;;;;;;;5093666;28;20514;-63
2023/07/03 13:28:28;;;;;;;9.60;4.40;;;;;;;;;;5093585;28;20841;-63
2023/07/03 13:31:11;;;;;;;19.17;4.77;;;;;;;;;;5093762;28;20446;-64
2023/07/03 13:33:38;;;;;;;8.50;4.97;;;;;;;;;;5093593;28;20435;-64
2023/07/03 13:36:24;;;;;;;9.90;3.87;;;;;;;;;;5092739;28;20878;-64
2023/07/03 13:39:05;;;;;;;15.63;4.37;;;;;;;;;;5093070;28;20446;-63
2023/07/03 13:41:33;;;;;;;11.10;4.00;;;;;;;;;;5093291;28;20781;-64
2023/07/03 13:44:00;;;;;;;9.40;4.70;;;;;;;;;;5092011;28;20947;-64
2023/07/03 13:46:28;;;;;;;7.77;4.53;;;;;;;;;;5093417;28;20438;-64
2023/07/03 13:48:55;;;;;;;8.53;4.63;;;;;;;;;;5093054;28;20453;-63
2023/07/03 13:51:24;;;;;;;10.97;4.03;;;;;;;;;;5093047;28;20497;-64
2023/07/03 13:53:51;;;;;;;11.70;4.57;;;;;;;;;;5093556;28;20443;-64
2023/07/03 13:56:20;;;;;;;17.70;6.03;;;;;;;;;;5093914;28;20442;-64
2023/07/03 13:58:47;;;;;;;10.77;4.33;;;;;;;;;;5092710;28;20442;-63
2023/07/03 14:01:14;;;;;;;9.03;4.60;;;;;;;;;;5093588;28;20534;-63
2023/07/03 14:03:42;;;;;;;9.23;4.50;;;;;;;;;;5093340;28;20450;-64
2023/07/03 14:06:09;;;;;;;9.00;4.17;;;;;;;;;;5093348;28;20435;-64
2023/07/03 14:08:38;;;;;;;10.10;4.20;;;;;;;;;;5093388;28;20443;-64
2023/07/03 14:11:09;;;;;;;9.67;4.43;;;;;;;;;;5093382;28;20435;-64
2023/07/03 14:13:43;;;;;;;9.40;4.20;;;;;;;;;;5093224;28;20480;-64
2023/07/03 14:16:10;;;;;;;12.70;5.97;;;;;;;;;;5093455;28;20423;-63
2023/07/03 14:18:37;;;;;;;11.70;4.10;;;;;;;;;;5093311;28;20439;-63
2023/07/03 14:21:05;;;;;;;11.67;3.73;;;;;;;;;;5093739;28;20471;-64
2023/07/03 14:23:33;;;;;;;17.83;4.90;;;;;;;;;;5092774;28;20500;-63
2023/07/03 14:26:04;;;;;;;10.70;5.07;;;;;;;;;;5093408;28;20952;-63
2023/07/03 14:28:31;;;;;;;14.07;4.57;;;;;;;;;;5092851;28;20459;-63
2023/07/03 14:30:58;;;;;;;11.20;5.50;;;;;;;;;;5093459;28;20466;-63
2023/07/03 14:33:26;;;;;;;15.97;5.30;;;;;;;;;;5092637;28;20569;-63
2023/07/03 14:35:53;;;;;;;10.17;5.07;;;;;;;;;;5093111;28;20792;-63
2023/07/03 14:38:20;;;;;;;10.87;3.60;;;;;;;;;;5093225;28;20451;-63
2023/07/03 14:40:47;;;;;;;7.40;3.60;;;;;;;;;;5092840;28;20947;-63